sensor_id;sensor_type;location;lat;lon;timestamp;P1;durP1;ratioP1;P2;durP2;ratioP2
75548;SDS011;64133;56.002;37.208;2023-11-19T00:00:20;2.85;;;2.35;;
75548;SDS011;64133;56.002;37.208;2023-11-19T00:05:25;3.00;;;1.35;;
75548;SDS011;64133;56.002;37.208;2023-11-19T00:10:30;2.80;;;1.80;;
75548;SDS011;64133;56.002;37.208;2023-11-19T00:15:35;3.60;;;1.67;;
75548;SDS011;64133;56.002;37.208;2023-11-19T00:20:39;3.42;;;3.12;;
75548;SDS011;64133;56.002;37.208;2023-11-19T00:25:44;7.35;;;2.52;;
75548;SDS011;64133;56.002;37.208;2023-11-19T00:30:49;3.50;;;1.65;;
75548;SDS011;64133;56.002;37.208;2023-11-19T00:35:54;3.40;;;3.02;;
75548;SDS011;64133;56.002;37.208;2023-11-19T00:40:59;1.90;;;1.50;;
75548;SDS011;64133;56.002;37.208;2023-11-19T00:46:04;7.65;;;4.60;;
75548;SDS011;64133;56.002;37.208;2023-11-19T00:51:12;3.75;;;1.92;;
75548;SDS011;64133;56.002;37.208;2023-11-19T00:56:17;7.40;;;2.72;;
75548;SDS011;64133;56.002;37.208;2023-11-19T01:01:22;4.15;;;3.05;;
75548;SDS011;64133;56.002;37.208;2023-11-19T01:06:27;4.28;;;3.65;;
75548;SDS011;64133;56.002;37.208;2023-11-19T01:11:32;2.08;;;1.80;;
75548;SDS011;64133;56.002;37.208;2023-11-19T01:16:37;2.65;;;2.33;;
75548;SDS011;64133;56.002;37.208;2023-11-19T01:21:42;3.10;;;2.77;;
75548;SDS011;64133;56.002;37.208;2023-11-19T01:26:47;3.33;;;2.72;;
75548;SDS011;64133;56.002;37.208;2023-11-19T01:31:52;10.45;;;4.25;;
75548;SDS011;64133;56.002;37.208;2023-11-19T01:36:57;9.70;;;2.90;;
75548;SDS011;64133;56.002;37.208;2023-11-19T01:42:01;4.72;;;3.27;;
75548;SDS011;64133;56.002;37.208;2023-11-19T01:47:07;6.53;;;3.52;;
75548;SDS011;64133;56.002;37.208;2023-11-19T01:52:11;8.48;;;3.52;;
75548;SDS011;64133;56.002;37.208;2023-11-19T01:57:16;3.77;;;2.77;;
75548;SDS011;64133;56.002;37.208;2023-11-19T02:02:21;7.67;;;3.60;;
75548;SDS011;64133;56.002;37.208;2023-11-19T02:07:26;4.17;;;1.90;;
75548;SDS011;64133;56.002;37.208;2023-11-19T02:12:31;7.03;;;6.28;;
75548;SDS011;64133;56.002;37.208;2023-11-19T02:17:36;3.80;;;3.50;;
75548;SDS011;64133;56.002;37.208;2023-11-19T02:22:41;15.25;;;4.03;;
75548;SDS011;64133;56.002;37.208;2023-11-19T02:27:51;8.48;;;4.53;;
75548;SDS011;64133;56.002;37.208;2023-11-19T02:32:55;3.90;;;2.70;;
75548;SDS011;64133;56.002;37.208;2023-11-19T02:38:00;11.22;;;4.53;;
75548;SDS011;64133;56.002;37.208;2023-11-19T02:43:05;7.58;;;5.53;;
75548;SDS011;64133;56.002;37.208;2023-11-19T02:48:10;2.75;;;2.55;;
75548;SDS011;64133;56.002;37.208;2023-11-19T02:53:15;8.05;;;4.75;;
75548;SDS011;64133;56.002;37.208;2023-11-19T02:58:20;3.98;;;3.58;;
75548;SDS011;64133;56.002;37.208;2023-11-19T03:03:25;4.78;;;3.65;;
75548;SDS011;64133;56.002;37.208;2023-11-19T03:08:31;14.70;;;4.70;;
75548;SDS011;64133;56.002;37.208;2023-11-19T03:13:36;6.87;;;3.83;;
75548;SDS011;64133;56.002;37.208;2023-11-19T03:18:41;3.75;;;3.45;;
75548;SDS011;64133;56.002;37.208;2023-11-19T03:23:46;4.83;;;3.15;;
75548;SDS011;64133;56.002;37.208;2023-11-19T03:28:51;6.65;;;5.80;;
75548;SDS011;64133;56.002;37.208;2023-11-19T03:33:56;5.20;;;2.92;;
75548;SDS011;64133;56.002;37.208;2023-11-19T03:39:01;6.22;;;4.25;;
75548;SDS011;64133;56.002;37.208;2023-11-19T03:44:06;6.72;;;4.20;;
75548;SDS011;64133;56.002;37.208;2023-11-19T03:49:11;5.67;;;3.55;;
75548;SDS011;64133;56.002;37.208;2023-11-19T03:54:16;3.80;;;2.50;;
75548;SDS011;64133;56.002;37.208;2023-11-19T03:59:21;6.45;;;3.95;;
75548;SDS011;64133;56.002;37.208;2023-11-19T04:04:26;6.87;;;3.85;;
75548;SDS011;64133;56.002;37.208;2023-11-19T04:09:31;11.43;;;4.17;;
75548;SDS011;64133;56.002;37.208;2023-11-19T04:14:37;6.10;;;3.22;;
75548;SDS011;64133;56.002;37.208;2023-11-19T04:19:42;3.85;;;2.90;;
75548;SDS011;64133;56.002;37.208;2023-11-19T04:24:46;4.58;;;3.50;;
75548;SDS011;64133;56.002;37.208;2023-11-19T04:29:51;4.33;;;3.22;;
75548;SDS011;64133;56.002;37.208;2023-11-19T04:34:56;7.28;;;4.05;;
75548;SDS011;64133;56.002;37.208;2023-11-19T04:40:01;9.83;;;4.17;;
75548;SDS011;64133;56.002;37.208;2023-11-19T04:45:07;7.05;;;5.83;;
75548;SDS011;64133;56.002;37.208;2023-11-19T04:50:12;8.03;;;3.70;;
75548;SDS011;64133;56.002;37.208;2023-11-19T04:55:17;5.80;;;3.92;;
75548;SDS011;64133;56.002;37.208;2023-11-19T05:05:26;5.83;;;3.50;;
75548;SDS011;64133;56.002;37.208;2023-11-19T05:10:30;7.67;;;3.50;;
75548;SDS011;64133;56.002;37.208;2023-11-19T05:20:39;10.15;;;3.55;;
75548;SDS011;64133;56.002;37.208;2023-11-19T05:30:47;4.05;;;2.45;;
75548;SDS011;64133;56.002;37.208;2023-11-19T05:40:55;4.92;;;3.55;;
75548;SDS011;64133;56.002;37.208;2023-11-19T05:46:00;4.33;;;3.20;;
75548;SDS011;64133;56.002;37.208;2023-11-19T05:51:05;3.37;;;2.87;;
75548;SDS011;64133;56.002;37.208;2023-11-19T05:56:13;8.18;;;3.92;;
75548;SDS011;64133;56.002;37.208;2023-11-19T06:01:19;7.65;;;2.65;;
75548;SDS011;64133;56.002;37.208;2023-11-19T06:06:23;9.75;;;3.10;;
75548;SDS011;64133;56.002;37.208;2023-11-19T06:11:28;4.80;;;2.75;;
75548;SDS011;64133;56.002;37.208;2023-11-19T06:16:33;3.42;;;1.87;;
75548;SDS011;64133;56.002;37.208;2023-11-19T06:21:39;5.75;;;2.02;;
75548;SDS011;64133;56.002;37.208;2023-11-19T06:26:44;6.50;;;3.05;;
75548;SDS011;64133;56.002;37.208;2023-11-19T06:31:49;3.35;;;2.58;;
75548;SDS011;64133;56.002;37.208;2023-11-19T06:36:54;3.70;;;1.90;;
75548;SDS011;64133;56.002;37.208;2023-11-19T06:41:59;3.98;;;3.25;;
75548;SDS011;64133;56.002;37.208;2023-11-19T06:47:04;2.15;;;1.90;;
75548;SDS011;64133;56.002;37.208;2023-11-19T06:52:09;7.35;;;2.30;;
75548;SDS011;64133;56.002;37.208;2023-11-19T06:57:14;5.80;;;3.05;;
75548;SDS011;64133;56.002;37.208;2023-11-19T07:02:19;4.25;;;2.37;;
75548;SDS011;64133;56.002;37.208;2023-11-19T07:07:24;3.67;;;2.77;;
75548;SDS011;64133;56.002;37.208;2023-11-19T07:12:29;5.75;;;3.45;;
75548;SDS011;64133;56.002;37.208;2023-11-19T07:17:34;2.12;;;1.80;;
75548;SDS011;64133;56.002;37.208;2023-11-19T07:22:39;4.05;;;2.30;;
75548;SDS011;64133;56.002;37.208;2023-11-19T07:27:44;6.00;;;1.87;;
75548;SDS011;64133;56.002;37.208;2023-11-19T07:32:49;12.30;;;2.87;;
75548;SDS011;64133;56.002;37.208;2023-11-19T07:44:07;2.72;;;1.80;;
75548;SDS011;64133;56.002;37.208;2023-11-19T07:49:12;5.70;;;2.27;;
75548;SDS011;64133;56.002;37.208;2023-11-19T07:54:17;7.37;;;3.42;;
75548;SDS011;64133;56.002;37.208;2023-11-19T07:59:22;2.70;;;2.08;;
75548;SDS011;64133;56.002;37.208;2023-11-19T08:04:27;4.60;;;1.87;;
75548;SDS011;64133;56.002;37.208;2023-11-19T08:09:32;4.20;;;2.47;;
75548;SDS011;64133;56.002;37.208;2023-11-19T08:14:37;7.45;;;2.60;;
75548;SDS011;64133;56.002;37.208;2023-11-19T08:19:42;2.05;;;1.62;;
75548;SDS011;64133;56.002;37.208;2023-11-19T08:24:47;4.22;;;2.20;;
75548;SDS011;64133;56.002;37.208;2023-11-19T08:29:52;6.72;;;2.45;;
75548;SDS011;64133;56.002;37.208;2023-11-19T08:34:58;8.88;;;3.65;;
75548;SDS011;64133;56.002;37.208;2023-11-19T08:40:05;4.42;;;2.85;;
75548;SDS011;64133;56.002;37.208;2023-11-19T08:45:12;1.42;;;1.27;;
75548;SDS011;64133;56.002;37.208;2023-11-19T08:50:17;4.92;;;3.20;;
75548;SDS011;64133;56.002;37.208;2023-11-19T08:55:22;4.28;;;1.82;;
75548;SDS011;64133;56.002;37.208;2023-11-19T09:00:29;1.95;;;1.27;;
75548;SDS011;64133;56.002;37.208;2023-11-19T09:05:38;1.47;;;1.15;;
75548;SDS011;64133;56.002;37.208;2023-11-19T09:10:43;2.40;;;1.77;;
75548;SDS011;64133;56.002;37.208;2023-11-19T09:15:48;2.47;;;1.87;;
75548;SDS011;64133;56.002;37.208;2023-11-19T09:20:53;3.87;;;2.27;;
75548;SDS011;64133;56.002;37.208;2023-11-19T09:25:58;2.15;;;0.80;;
75548;SDS011;64133;56.002;37.208;2023-11-19T09:31:12;5.75;;;1.72;;
75548;SDS011;64133;56.002;37.208;2023-11-19T09:36:19;2.30;;;1.25;;
75548;SDS011;64133;56.002;37.208;2023-11-19T09:41:24;2.92;;;0.98;;
75548;SDS011;64133;56.002;37.208;2023-11-19T09:46:32;3.55;;;1.75;;
75548;SDS011;64133;56.002;37.208;2023-11-19T09:51:37;0.40;;;0.20;;
75548;SDS011;64133;56.002;37.208;2023-11-19T09:56:42;7.03;;;2.02;;
75548;SDS011;64133;56.002;37.208;2023-11-19T10:01:47;2.90;;;2.35;;
75548;SDS011;64133;56.002;37.208;2023-11-19T10:06:52;2.22;;;1.32;;
75548;SDS011;64133;56.002;37.208;2023-11-19T10:11:57;5.33;;;1.35;;
75548;SDS011;64133;56.002;37.208;2023-11-19T10:17:02;3.12;;;2.40;;
75548;SDS011;64133;56.002;37.208;2023-11-19T10:22:07;1.95;;;1.50;;
75548;SDS011;64133;56.002;37.208;2023-11-19T10:27:12;2.40;;;1.42;;
75548;SDS011;64133;56.002;37.208;2023-11-19T10:32:17;1.45;;;1.30;;
75548;SDS011;64133;56.002;37.208;2023-11-19T10:37:28;3.77;;;1.42;;
75548;SDS011;64133;56.002;37.208;2023-11-19T10:42:34;1.87;;;0.78;;
75548;SDS011;64133;56.002;37.208;2023-11-19T10:47:39;1.05;;;0.95;;
75548;SDS011;64133;56.002;37.208;2023-11-19T10:52:44;4.92;;;1.87;;
75548;SDS011;64133;56.002;37.208;2023-11-19T10:57:49;1.57;;;1.12;;
75548;SDS011;64133;56.002;37.208;2023-11-19T11:02:55;7.85;;;1.47;;
75548;SDS011;64133;56.002;37.208;2023-11-19T11:07:59;1.62;;;1.15;;
75548;SDS011;64133;56.002;37.208;2023-11-19T11:13:05;1.67;;;1.27;;
75548;SDS011;64133;56.002;37.208;2023-11-19T11:18:10;2.87;;;1.17;;
75548;SDS011;64133;56.002;37.208;2023-11-19T11:23:24;3.50;;;1.20;;
75548;SDS011;64133;56.002;37.208;2023-11-19T11:28:35;1.20;;;0.88;;
75548;SDS011;64133;56.002;37.208;2023-11-19T11:33:44;2.67;;;2.05;;
75548;SDS011;64133;56.002;37.208;2023-11-19T11:38:53;3.72;;;1.57;;
75548;SDS011;64133;56.002;37.208;2023-11-19T11:43:58;1.92;;;0.82;;
75548;SDS011;64133;56.002;37.208;2023-11-19T11:49:05;2.17;;;1.22;;
75548;SDS011;64133;56.002;37.208;2023-11-19T11:54:10;0.90;;;0.60;;
75548;SDS011;64133;56.002;37.208;2023-11-19T11:59:19;1.02;;;0.95;;
75548;SDS011;64133;56.002;37.208;2023-11-19T12:04:26;3.92;;;1.85;;
75548;SDS011;64133;56.002;37.208;2023-11-19T12:09:32;3.72;;;1.15;;
75548;SDS011;64133;56.002;37.208;2023-11-19T12:20:10;3.77;;;2.10;;
75548;SDS011;64133;56.002;37.208;2023-11-19T12:25:15;2.17;;;0.98;;
75548;SDS011;64133;56.002;37.208;2023-11-19T12:30:23;2.87;;;1.82;;
75548;SDS011;64133;56.002;37.208;2023-11-19T12:35:28;3.00;;;1.27;;
75548;SDS011;64133;56.002;37.208;2023-11-19T12:45:36;2.75;;;1.37;;
75548;SDS011;64133;56.002;37.208;2023-11-19T12:55:59;8.00;;;1.75;;
75548;SDS011;64133;56.002;37.208;2023-11-19T13:01:03;4.60;;;1.52;;
75548;SDS011;64133;56.002;37.208;2023-11-19T13:06:09;8.68;;;2.35;;
75548;SDS011;64133;56.002;37.208;2023-11-19T13:11:14;3.92;;;1.98;;
75548;SDS011;64133;56.002;37.208;2023-11-19T13:21:22;2.83;;;2.35;;
75548;SDS011;64133;56.002;37.208;2023-11-19T13:31:31;3.95;;;2.33;;
75548;SDS011;64133;56.002;37.208;2023-11-19T13:36:36;12.05;;;1.67;;
75548;SDS011;64133;56.002;37.208;2023-11-19T13:41:41;6.47;;;4.03;;
75548;SDS011;64133;56.002;37.208;2023-11-19T13:46:46;4.03;;;2.45;;
75548;SDS011;64133;56.002;37.208;2023-11-19T13:51:51;3.92;;;1.72;;
75548;SDS011;64133;56.002;37.208;2023-11-19T14:02:00;1.55;;;1.15;;
75548;SDS011;64133;56.002;37.208;2023-11-19T14:07:05;3.42;;;1.77;;
75548;SDS011;64133;56.002;37.208;2023-11-19T14:17:14;2.10;;;1.82;;
75548;SDS011;64133;56.002;37.208;2023-11-19T14:27:22;2.05;;;0.70;;
75548;SDS011;64133;56.002;37.208;2023-11-19T14:37:31;4.15;;;2.17;;
75548;SDS011;64133;56.002;37.208;2023-11-19T14:42:36;3.47;;;2.98;;
75548;SDS011;64133;56.002;37.208;2023-11-19T14:47:41;4.55;;;1.85;;
75548;SDS011;64133;56.002;37.208;2023-11-19T14:52:49;10.55;;;2.33;;
75548;SDS011;64133;56.002;37.208;2023-11-19T14:57:54;0.98;;;0.80;;
75548;SDS011;64133;56.002;37.208;2023-11-19T15:02:59;2.77;;;1.35;;
75548;SDS011;64133;56.002;37.208;2023-11-19T15:08:05;6.50;;;3.40;;
75548;SDS011;64133;56.002;37.208;2023-11-19T15:13:10;2.30;;;1.12;;
75548;SDS011;64133;56.002;37.208;2023-11-19T15:23:19;1.45;;;1.35;;
75548;SDS011;64133;56.002;37.208;2023-11-19T15:33:28;2.00;;;0.93;;
75548;SDS011;64133;56.002;37.208;2023-11-19T15:38:33;11.22;;;2.58;;
75548;SDS011;64133;56.002;37.208;2023-11-19T15:48:41;5.75;;;1.37;;
75548;SDS011;64133;56.002;37.208;2023-11-19T15:58:50;9.00;;;2.45;;
75548;SDS011;64133;56.002;37.208;2023-11-19T16:08:58;2.87;;;1.17;;
75548;SDS011;64133;56.002;37.208;2023-11-19T16:19:07;1.22;;;0.70;;
75548;SDS011;64133;56.002;37.208;2023-11-19T16:29:15;1.42;;;1.12;;
75548;SDS011;64133;56.002;37.208;2023-11-19T16:34:20;2.45;;;1.67;;
75548;SDS011;64133;56.002;37.208;2023-11-19T16:44:29;2.05;;;1.02;;
75548;SDS011;64133;56.002;37.208;2023-11-19T16:54:38;4.60;;;2.35;;
75548;SDS011;64133;56.002;37.208;2023-11-19T17:04:46;2.02;;;0.37;;
75548;SDS011;64133;56.002;37.208;2023-11-19T17:14:55;7.05;;;1.82;;
75548;SDS011;64133;56.002;37.208;2023-11-19T17:25:06;3.33;;;2.08;;
75548;SDS011;64133;56.002;37.208;2023-11-19T17:30:11;3.65;;;2.05;;
75548;SDS011;64133;56.002;37.208;2023-11-19T17:35:17;0.95;;;0.90;;
75548;SDS011;64133;56.002;37.208;2023-11-19T17:40:22;4.65;;;1.70;;
75548;SDS011;64133;56.002;37.208;2023-11-19T17:45:27;1.47;;;1.37;;
75548;SDS011;64133;56.002;37.208;2023-11-19T17:50:33;3.17;;;2.22;;
75548;SDS011;64133;56.002;37.208;2023-11-19T18:00:42;1.57;;;1.30;;
75548;SDS011;64133;56.002;37.208;2023-11-19T18:05:47;0.78;;;0.75;;
75548;SDS011;64133;56.002;37.208;2023-11-19T18:10:52;0.93;;;0.82;;
75548;SDS011;64133;56.002;37.208;2023-11-19T18:16:00;2.17;;;1.20;;
75548;SDS011;64133;56.002;37.208;2023-11-19T18:21:06;3.40;;;2.40;;
75548;SDS011;64133;56.002;37.208;2023-11-19T18:26:17;3.33;;;2.25;;
75548;SDS011;64133;56.002;37.208;2023-11-19T18:31:23;4.80;;;1.65;;
75548;SDS011;64133;56.002;37.208;2023-11-19T18:36:34;7.35;;;3.00;;
75548;SDS011;64133;56.002;37.208;2023-11-19T18:41:39;11.12;;;4.12;;
75548;SDS011;64133;56.002;37.208;2023-11-19T18:46:44;2.12;;;1.90;;
75548;SDS011;64133;56.002;37.208;2023-11-19T18:56:53;1.57;;;1.42;;
75548;SDS011;64133;56.002;37.208;2023-11-19T19:01:59;4.17;;;2.47;;
75548;SDS011;64133;56.002;37.208;2023-11-19T19:07:06;5.97;;;2.20;;
75548;SDS011;64133;56.002;37.208;2023-11-19T19:12:11;10.45;;;2.67;;
75548;SDS011;64133;56.002;37.208;2023-11-19T19:17:17;4.78;;;1.65;;
75548;SDS011;64133;56.002;37.208;2023-11-19T19:27:25;4.42;;;3.42;;
75548;SDS011;64133;56.002;37.208;2023-11-19T19:32:30;3.65;;;2.10;;
75548;SDS011;64133;56.002;37.208;2023-11-19T19:37:35;3.67;;;2.40;;
75548;SDS011;64133;56.002;37.208;2023-11-19T19:42:40;3.10;;;1.98;;
75548;SDS011;64133;56.002;37.208;2023-11-19T19:47:45;3.80;;;2.25;;
75548;SDS011;64133;56.002;37.208;2023-11-19T19:52:50;5.83;;;3.40;;
75548;SDS011;64133;56.002;37.208;2023-11-19T19:57:55;1.45;;;1.35;;
75548;SDS011;64133;56.002;37.208;2023-11-19T20:03:00;3.17;;;2.70;;
75548;SDS011;64133;56.002;37.208;2023-11-19T20:08:05;5.22;;;3.27;;
75548;SDS011;64133;56.002;37.208;2023-11-19T20:18:14;1.77;;;1.37;;
75548;SDS011;64133;56.002;37.208;2023-11-19T20:23:19;3.12;;;1.82;;
75548;SDS011;64133;56.002;37.208;2023-11-19T20:33:29;3.05;;;2.08;;
75548;SDS011;64133;56.002;37.208;2023-11-19T20:38:35;5.60;;;3.12;;
75548;SDS011;64133;56.002;37.208;2023-11-19T20:43:40;6.25;;;4.05;;
75548;SDS011;64133;56.002;37.208;2023-11-19T20:48:45;5.45;;;2.58;;
75548;SDS011;64133;56.002;37.208;2023-11-19T20:53:50;10.55;;;3.50;;
75548;SDS011;64133;56.002;37.208;2023-11-19T20:58:55;7.95;;;4.15;;
75548;SDS011;64133;56.002;37.208;2023-11-19T21:09:03;1.35;;;1.15;;
75548;SDS011;64133;56.002;37.208;2023-11-19T21:14:08;7.72;;;3.60;;
75548;SDS011;64133;56.002;37.208;2023-11-19T21:24:17;6.22;;;4.60;;
75548;SDS011;64133;56.002;37.208;2023-11-19T21:29:22;6.25;;;4.00;;
75548;SDS011;64133;56.002;37.208;2023-11-19T21:39:30;3.52;;;3.15;;
75548;SDS011;64133;56.002;37.208;2023-11-19T21:44:35;9.38;;;3.92;;
75548;SDS011;64133;56.002;37.208;2023-11-19T21:49:40;6.25;;;4.90;;
75548;SDS011;64133;56.002;37.208;2023-11-19T21:59:48;7.22;;;3.42;;
75548;SDS011;64133;56.002;37.208;2023-11-19T22:04:53;15.68;;;8.80;;
75548;SDS011;64133;56.002;37.208;2023-11-19T22:09:58;11.55;;;6.35;;
75548;SDS011;64133;56.002;37.208;2023-11-19T22:15:04;6.42;;;3.95;;
75548;SDS011;64133;56.002;37.208;2023-11-19T22:20:10;6.97;;;4.92;;
75548;SDS011;64133;56.002;37.208;2023-11-19T22:30:18;4.90;;;4.22;;
75548;SDS011;64133;56.002;37.208;2023-11-19T22:35:23;9.80;;;6.03;;
75548;SDS011;64133;56.002;37.208;2023-11-19T22:40:28;10.95;;;5.53;;
75548;SDS011;64133;56.002;37.208;2023-11-19T22:45:33;9.53;;;4.65;;
75548;SDS011;64133;56.002;37.208;2023-11-19T22:50:38;13.98;;;5.35;;
75548;SDS011;64133;56.002;37.208;2023-11-19T22:55:43;13.43;;;5.37;;
75548;SDS011;64133;56.002;37.208;2023-11-19T23:05:51;21.15;;;8.65;;
75548;SDS011;64133;56.002;37.208;2023-11-19T23:10:56;6.53;;;3.95;;
75548;SDS011;64133;56.002;37.208;2023-11-19T23:16:01;10.88;;;6.40;;
75548;SDS011;64133;56.002;37.208;2023-11-19T23:21:06;27.80;;;4.42;;
75548;SDS011;64133;56.002;37.208;2023-11-19T23:26:11;9.53;;;2.90;;
75548;SDS011;64133;56.002;37.208;2023-11-19T23:31:17;9.40;;;6.50;;
75548;SDS011;64133;56.002;37.208;2023-11-19T23:36:21;8.50;;;5.85;;
75548;SDS011;64133;56.002;37.208;2023-11-19T23:41:26;11.90;;;5.03;;
75548;SDS011;64133;56.002;37.208;2023-11-19T23:46:31;8.45;;;5.10;;
75548;SDS011;64133;56.002;37.208;2023-11-19T23:51:37;7.25;;;4.78;;
75548;SDS011;64133;56.002;37.208;2023-11-19T23:56:42;6.53;;;4.37;;
